Time;durP1;ratioP1;P1;durP2;ratioP2;P2;SDS_P1;SDS_P2;PMS_P1;PMS_P2;Temp;Humidity;BMP_temperature;BMP_pressure;BME280_temperature;BME280_humidity;BME280_pressure;Samples;Min_cycle;Max_cycle;Signal;HPM_P1;HPM_P2
2023/03/04 00:00:17;;;;;;;2.03;1.70;;;;;;;;;;5007614;28;20537;-69
2023/03/04 00:02:42;;;;;;;2.75;1.80;;;;;;;;;;5008651;28;20277;-72
2023/03/04 00:05:07;;;;;;;2.40;1.87;;;;;;;;;;4982327;28;20125;-73
2023/03/04 00:07:33;;;;;;;2.25;1.83;;;;;;;;;;4989177;28;21211;-69
2023/03/04 00:09:58;;;;;;;2.72;2.00;;;;;;;;;;5007196;28;20081;-73
2023/03/04 00:12:23;;;;;;;2.53;1.80;;;;;;;;;;5007571;28;20061;-73
2023/03/04 00:14:48;;;;;;;2.30;2.00;;;;;;;;;;4991240;28;20277;-75
2023/03/04 00:17:14;;;;;;;3.50;2.43;;;;;;;;;;5008704;28;20112;-75
2023/03/04 00:19:39;;;;;;;3.10;2.27;;;;;;;;;;5013634;28;20667;-70
2023/03/04 00:22:04;;;;;;;2.55;2.17;;;;;;;;;;4991845;28;20368;-73
2023/03/04 00:24:30;;;;;;;2.40;1.93;;;;;;;;;;5005796;28;20057;-71
2023/03/04 00:26:55;;;;;;;2.50;2.00;;;;;;;;;;5004800;28;20273;-70
2023/03/04 00:29:21;;;;;;;2.58;2.00;;;;;;;;;;5006006;28;20042;-75
2023/03/04 00:31:46;;;;;;;2.42;1.83;;;;;;;;;;5006885;28;20022;-67
2023/03/04 00:34:11;;;;;;;2.70;2.10;;;;;;;;;;4989609;28;20719;-73
2023/03/04 00:36:36;;;;;;;2.75;2.17;;;;;;;;;;4990869;28;20034;-72
2023/03/04 00:39:02;;;;;;;2.70;1.98;;;;;;;;;;5006955;28;20780;-75
2023/03/04 00:41:27;;;;;;;2.20;1.88;;;;;;;;;;5007504;28;20038;-68
2023/03/04 00:43:52;;;;;;;2.20;1.98;;;;;;;;;;4980065;28;20049;-69
2023/03/04 00:46:17;;;;;;;2.78;2.10;;;;;;;;;;5006545;28;20120;-73
2023/03/04 00:48:43;;;;;;;2.43;1.97;;;;;;;;;;5013708;28;20195;-67
2023/03/04 00:51:08;;;;;;;2.90;2.37;;;;;;;;;;5001603;28;21075;-68
2023/03/04 00:53:33;;;;;;;2.47;2.00;;;;;;;;;;4990115;28;20300;-77
2023/03/04 00:55:58;;;;;;;2.20;1.88;;;;;;;;;;5023041;28;20033;-73
2023/03/04 00:58:24;;;;;;;2.53;2.13;;;;;;;;;;4999573;28;20038;-68
2023/03/04 01:00:49;;;;;;;3.03;2.33;;;;;;;;;;5006545;28;20284;-70
2023/03/04 01:03:14;;;;;;;2.30;2.07;;;;;;;;;;4990196;28;20578;-72
2023/03/04 01:05:39;;;;;;;2.60;1.87;;;;;;;;;;5003855;28;20335;-71
2023/03/04 01:08:05;;;;;;;3.25;2.10;;;;;;;;;;4989777;28;20311;-70
2023/03/04 01:10:30;;;;;;;2.78;2.00;;;;;;;;;;4990089;28;20025;-77
2023/03/04 01:12:55;;;;;;;3.08;2.35;;;;;;;;;;5006837;28;20447;-74
2023/03/04 01:15:21;;;;;;;2.78;2.08;;;;;;;;;;4986385;28;20391;-70
2023/03/04 01:17:46;;;;;;;2.55;2.15;;;;;;;;;;4990094;28;20129;-72
2023/03/04 01:20:11;;;;;;;2.33;2.05;;;;;;;;;;5009040;28;20030;-74
2023/03/04 01:22:37;;;;;;;3.05;2.17;;;;;;;;;;5006491;28;20454;-65
2023/03/04 01:25:02;;;;;;;2.90;2.10;;;;;;;;;;5004992;28;20030;-70
2023/03/04 01:27:27;;;;;;;2.40;2.03;;;;;;;;;;5006759;28;20037;-73
2023/03/04 01:29:53;;;;;;;2.93;2.20;;;;;;;;;;4984128;28;20057;-75
2023/03/04 01:32:18;;;;;;;2.25;1.98;;;;;;;;;;4997935;28;20809;-68
2023/03/04 01:34:43;;;;;;;2.92;2.40;;;;;;;;;;5021689;28;20088;-73
2023/03/04 01:37:08;;;;;;;2.58;2.10;;;;;;;;;;4989305;28;20508;-72
2023/03/04 01:39:34;;;;;;;2.92;2.10;;;;;;;;;;5005224;28;20045;-68
2023/03/04 01:41:59;;;;;;;2.28;1.85;;;;;;;;;;4987189;28;20061;-70
2023/03/04 01:44:24;;;;;;;2.92;2.20;;;;;;;;;;5004533;28;20052;-72
2023/03/04 01:46:50;;;;;;;3.00;2.15;;;;;;;;;;4986126;28;20048;-67
2023/03/04 01:49:16;;;;;;;2.97;2.25;;;;;;;;;;4988744;28;20057;-67
2023/03/04 01:51:42;;;;;;;3.00;2.50;;;;;;;;;;4989261;28;20085;-74
2023/03/04 01:54:07;;;;;;;3.50;2.25;;;;;;;;;;5005053;28;20046;-72
2023/03/04 01:56:36;;;;;;;2.92;2.28;;;;;;;;;;4985943;28;20124;-72
2023/03/04 01:59:12;;;;;;;2.35;2.03;;;;;;;;;;5022185;28;20029;-74
2023/03/04 02:01:37;;;;;;;3.47;2.67;;;;;;;;;;4986173;28;20042;-70
2023/03/04 02:04:03;;;;;;;3.05;2.50;;;;;;;;;;4982569;28;20117;-72
2023/03/04 02:06:28;;;;;;;2.60;2.10;;;;;;;;;;4988612;28;20080;-73
2023/03/04 02:08:53;;;;;;;2.87;2.50;;;;;;;;;;4988221;28;20366;-67
2023/03/04 02:11:18;;;;;;;3.70;2.40;;;;;;;;;;4996131;28;20351;-69
2023/03/04 02:13:44;;;;;;;3.30;2.33;;;;;;;;;;4998624;28;20390;-70
2023/03/04 02:16:09;;;;;;;2.70;2.40;;;;;;;;;;4995664;28;20297;-71
2023/03/04 02:18:34;;;;;;;3.13;2.33;;;;;;;;;;4977134;28;20031;-68
2023/03/04 02:20:59;;;;;;;2.55;2.20;;;;;;;;;;4976995;28;20376;-69
2023/03/04 02:23:26;;;;;;;3.40;2.20;;;;;;;;;;4994660;28;20057;-69
2023/03/04 02:26:11;;;;;;;2.50;2.10;;;;;;;;;;4979415;28;20285;-72
2023/03/04 02:28:36;;;;;;;2.75;2.45;;;;;;;;;;5005528;28;20407;-67
2023/03/04 02:31:01;;;;;;;2.65;2.25;;;;;;;;;;4987672;28;20053;-72
2023/03/04 02:33:27;;;;;;;3.55;2.63;;;;;;;;;;4995267;28;20014;-71
2023/03/04 02:35:52;;;;;;;3.10;2.60;;;;;;;;;;5013778;28;20041;-73
2023/03/04 02:38:17;;;;;;;3.03;2.40;;;;;;;;;;5007107;28;20393;-68
2023/03/04 02:40:43;;;;;;;2.80;2.25;;;;;;;;;;5015067;28;20291;-75
2023/03/04 02:43:10;;;;;;;3.08;2.42;;;;;;;;;;5024232;28;20026;-74
2023/03/04 02:45:36;;;;;;;3.40;2.30;;;;;;;;;;5023314;28;20048;-72
2023/03/04 02:48:02;;;;;;;3.80;2.67;;;;;;;;;;5021901;28;20045;-72
2023/03/04 02:50:27;;;;;;;3.15;2.50;;;;;;;;;;5010259;28;20143;-67
2023/03/04 02:52:52;;;;;;;3.08;2.42;;;;;;;;;;5004221;28;20021;-74
2023/03/04 02:55:18;;;;;;;3.42;2.35;;;;;;;;;;5012829;28;20046;-71
2023/03/04 02:57:43;;;;;;;3.63;2.83;;;;;;;;;;5003281;28;20403;-69
2023/03/04 03:00:09;;;;;;;3.20;2.60;;;;;;;;;;5017499;28;20045;-71
2023/03/04 03:02:35;;;;;;;3.08;2.60;;;;;;;;;;5002013;28;20268;-70
2023/03/04 03:05:00;;;;;;;3.27;2.77;;;;;;;;;;5017474;28;20049;-65
2023/03/04 03:07:25;;;;;;;2.80;2.47;;;;;;;;;;5018045;28;20637;-67
2023/03/04 03:09:50;;;;;;;2.78;2.40;;;;;;;;;;5022840;28;20402;-72
2023/03/04 03:12:16;;;;;;;3.10;2.50;;;;;;;;;;5006599;28;20029;-69
2023/03/04 03:14:41;;;;;;;3.23;2.50;;;;;;;;;;5024471;28;20762;-73
2023/03/04 03:17:06;;;;;;;2.80;2.38;;;;;;;;;;5016844;28;20268;-68
2023/03/04 03:19:31;;;;;;;2.70;2.22;;;;;;;;;;5019224;28;20537;-73
2023/03/04 03:21:57;;;;;;;2.70;2.35;;;;;;;;;;5005872;28;20099;-75
2023/03/04 03:24:22;;;;;;;2.95;2.50;;;;;;;;;;5017168;28;20654;-62
2023/03/04 03:26:47;;;;;;;2.55;2.22;;;;;;;;;;5022480;28;20048;-72
2023/03/04 03:29:12;;;;;;;3.10;2.80;;;;;;;;;;4999081;28;20054;-74
2023/03/04 03:31:38;;;;;;;3.00;2.70;;;;;;;;;;5017958;28;20280;-75
2023/03/04 03:34:03;;;;;;;3.20;2.50;;;;;;;;;;5019169;28;20081;-68
2023/03/04 03:36:28;;;;;;;3.00;2.33;;;;;;;;;;4995031;28;20046;-69
2023/03/04 03:38:53;;;;;;;3.50;2.50;;;;;;;;;;4993481;28;20049;-69
2023/03/04 03:41:19;;;;;;;3.55;2.72;;;;;;;;;;4996242;28;20296;-72
2023/03/04 03:43:44;;;;;;;4.17;2.80;;;;;;;;;;5014203;28;21194;-70
2023/03/04 03:46:09;;;;;;;3.37;2.50;;;;;;;;;;5005931;28;20275;-75
2023/03/04 03:48:34;;;;;;;3.10;2.53;;;;;;;;;;5021635;28;20133;-69
2023/03/04 03:51:00;;;;;;;3.20;2.50;;;;;;;;;;5016761;28;20048;-69
2023/03/04 03:53:25;;;;;;;3.28;2.45;;;;;;;;;;5003023;28;20327;-65
2023/03/04 03:55:50;;;;;;;3.00;2.70;;;;;;;;;;5008222;28;20101;-72
2023/03/04 03:58:16;;;;;;;3.10;2.40;;;;;;;;;;4990662;28;20272;-72
2023/03/04 04:00:41;;;;;;;3.15;2.60;;;;;;;;;;5013888;28;20277;-70
2023/03/04 04:03:06;;;;;;;3.20;2.65;;;;;;;;;;5005695;28;20026;-72
2023/03/04 04:05:31;;;;;;;3.60;2.78;;;;;;;;;;5035004;28;20112;-74
2023/03/04 04:07:57;;;;;;;3.30;2.43;;;;;;;;;;5018523;28;20137;-63
2023/03/04 04:10:22;;;;;;;2.90;2.60;;;;;;;;;;5028603;28;20272;-67
2023/03/04 04:12:47;;;;;;;2.87;2.37;;;;;;;;;;5028325;28;20878;-69
2023/03/04 04:15:12;;;;;;;3.97;3.00;;;;;;;;;;5010568;28;20279;-75
2023/03/04 04:17:38;;;;;;;3.33;2.70;;;;;;;;;;5004926;28;20046;-75
2023/03/04 04:20:03;;;;;;;3.08;2.40;;;;;;;;;;5010450;28;20818;-75
2023/03/04 04:22:29;;;;;;;3.20;2.70;;;;;;;;;;5022431;28;20030;-69
2023/03/04 04:24:54;;;;;;;3.10;2.50;;;;;;;;;;5025640;28;20052;-72
2023/03/04 04:27:19;;;;;;;3.00;2.30;;;;;;;;;;5004030;28;20088;-72
2023/03/04 04:29:44;;;;;;;2.83;2.22;;;;;;;;;;5040411;28;20272;-72
2023/03/04 04:32:11;;;;;;;3.10;2.20;;;;;;;;;;5006342;28;20115;-67
2023/03/04 04:34:37;;;;;;;3.60;2.55;;;;;;;;;;5011639;28;20264;-72
2023/03/04 04:37:02;;;;;;;2.88;2.30;;;;;;;;;;5012958;28;20032;-71
2023/03/04 04:39:27;;;;;;;3.20;2.60;;;;;;;;;;5011744;28;20028;-71
2023/03/04 04:41:53;;;;;;;3.23;2.90;;;;;;;;;;5010901;28;20306;-71
2023/03/04 04:44:18;;;;;;;3.50;2.67;;;;;;;;;;5009967;28;20275;-74
2023/03/04 04:46:43;;;;;;;2.85;2.22;;;;;;;;;;5011371;28;20064;-71
2023/03/04 04:49:09;;;;;;;3.30;2.75;;;;;;;;;;5029279;28;20135;-74
2023/03/04 04:51:34;;;;;;;2.70;2.35;;;;;;;;;;5022991;28;20608;-71
2023/03/04 04:54:00;;;;;;;3.08;2.60;;;;;;;;;;5005216;28;20044;-71
2023/03/04 04:56:25;;;;;;;3.22;2.55;;;;;;;;;;5042404;28;20485;-69
2023/03/04 04:58:51;;;;;;;3.05;2.50;;;;;;;;;;5030487;28;20059;-75
2023/03/04 05:01:16;;;;;;;3.20;2.65;;;;;;;;;;5030137;28;20378;-71
2023/03/04 05:03:42;;;;;;;2.90;2.40;;;;;;;;;;5023597;28;20029;-75
2023/03/04 05:06:07;;;;;;;2.58;2.35;;;;;;;;;;5029790;28;20679;-73
2023/03/04 05:08:32;;;;;;;2.90;2.50;;;;;;;;;;5031916;28;20037;-73
2023/03/04 05:10:58;;;;;;;3.10;2.43;;;;;;;;;;5011044;28;20041;-68
2023/03/04 05:13:23;;;;;;;2.90;2.40;;;;;;;;;;5041743;28;20996;-68
2023/03/04 05:15:52;;;;;;;3.00;2.57;;;;;;;;;;5020880;28;20103;-73
2023/03/04 05:18:17;;;;;;;3.10;2.35;;;;;;;;;;5042922;28;20393;-73
2023/03/04 05:20:43;;;;;;;2.95;2.30;;;;;;;;;;5024371;28;20493;-74
2023/03/04 05:23:08;;;;;;;3.33;2.80;;;;;;;;;;5024864;28;20497;-75
2023/03/04 05:25:33;;;;;;;3.10;2.63;;;;;;;;;;5044845;28;20033;-69
2023/03/04 05:28:00;;;;;;;2.93;2.40;;;;;;;;;;5027214;28;20911;-69
2023/03/04 05:30:26;;;;;;;3.33;2.42;;;;;;;;;;5027913;28;20344;-71
2023/03/04 05:32:51;;;;;;;2.88;2.30;;;;;;;;;;5017561;28;20037;-73
2023/03/04 05:35:16;;;;;;;2.70;2.27;;;;;;;;;;5010955;28;20194;-68
2023/03/04 05:37:41;;;;;;;3.07;2.50;;;;;;;;;;5000860;28;20302;-73
2023/03/04 05:40:08;;;;;;;3.57;2.73;;;;;;;;;;5010807;28;20903;-71
2023/03/04 05:42:33;;;;;;;2.70;2.30;;;;;;;;;;5005633;28;20299;-69
2023/03/04 05:44:58;;;;;;;3.20;2.50;;;;;;;;;;5008514;28;20065;-66
2023/03/04 05:47:23;;;;;;;2.73;2.30;;;;;;;;;;5031718;28;20141;-68
2023/03/04 05:49:49;;;;;;;3.03;2.47;;;;;;;;;;5034140;28;20798;-71
2023/03/04 05:52:14;;;;;;;3.05;2.28;;;;;;;;;;5001787;28;20299;-72
2023/03/04 05:54:39;;;;;;;2.83;2.33;;;;;;;;;;5033844;28;20040;-71
2023/03/04 05:57:04;;;;;;;2.93;2.23;;;;;;;;;;5000162;28;20883;-67
2023/03/04 05:59:30;;;;;;;3.57;2.60;;;;;;;;;;5017271;28;20827;-67
2023/03/04 06:01:55;;;;;;;3.08;2.78;;;;;;;;;;5018739;28;20037;-67
2023/03/04 06:04:20;;;;;;;3.17;2.30;;;;;;;;;;5031654;28;20049;-66
2023/03/04 06:06:46;;;;;;;3.10;2.80;;;;;;;;;;5014526;28;21172;-63
2023/03/04 06:09:11;;;;;;;3.95;2.70;;;;;;;;;;5013827;28;20407;-66
2023/03/04 06:11:36;;;;;;;3.00;2.50;;;;;;;;;;5012626;28;20517;-65
2023/03/04 06:14:02;;;;;;;3.23;2.40;;;;;;;;;;5019906;28;20433;-70
2023/03/04 06:16:27;;;;;;;3.40;2.60;;;;;;;;;;5018100;28;20311;-67
2023/03/04 06:18:52;;;;;;;3.37;2.60;;;;;;;;;;5017561;28;20037;-67
2023/03/04 06:21:18;;;;;;;2.60;2.17;;;;;;;;;;5015301;28;20951;-75
2023/03/04 06:23:44;;;;;;;2.95;2.40;;;;;;;;;;4998312;28;20480;-71
2023/03/04 06:26:14;;;;;;;3.45;2.70;;;;;;;;;;5004315;28;20037;-66
2023/03/04 06:28:39;;;;;;;2.95;2.40;;;;;;;;;;5015966;28;20045;-71
2023/03/04 06:31:04;;;;;;;3.00;2.60;;;;;;;;;;5003088;28;20591;-70
2023/03/04 06:33:30;;;;;;;2.95;2.47;;;;;;;;;;5021666;28;20056;-71
2023/03/04 06:35:55;;;;;;;2.88;2.47;;;;;;;;;;5013761;28;20065;-65
2023/03/04 06:38:20;;;;;;;3.45;2.42;;;;;;;;;;4999962;28;20121;-69
2023/03/04 06:40:45;;;;;;;3.10;2.40;;;;;;;;;;4997738;28;20401;-70
2023/03/04 06:43:11;;;;;;;3.50;2.50;;;;;;;;;;5003151;28;20387;-71
2023/03/04 06:45:37;;;;;;;2.97;2.45;;;;;;;;;;5014839;28;20296;-64
2023/03/04 06:48:02;;;;;;;2.92;2.60;;;;;;;;;;4998129;28;20061;-69
2023/03/04 06:50:28;;;;;;;2.90;2.28;;;;;;;;;;4998287;28;20048;-73
2023/03/04 06:52:55;;;;;;;3.30;2.80;;;;;;;;;;5018908;28;20033;-72
2023/03/04 06:55:20;;;;;;;3.45;2.90;;;;;;;;;;5016298;28;20053;-66
2023/03/04 06:57:45;;;;;;;3.30;2.80;;;;;;;;;;5035192;28;20122;-71
2023/03/04 07:00:11;;;;;;;2.93;2.53;;;;;;;;;;5016694;28;20303;-73
2023/03/04 07:02:36;;;;;;;3.28;2.70;;;;;;;;;;5014744;28;20288;-72
2023/03/04 07:05:01;;;;;;;3.43;2.70;;;;;;;;;;5019539;28;20044;-63
2023/03/04 07:07:26;;;;;;;2.72;2.42;;;;;;;;;;5016373;28;20936;-70
2023/03/04 07:09:52;;;;;;;3.30;2.65;;;;;;;;;;5032007;28;20041;-70
2023/03/04 07:12:17;;;;;;;3.20;2.60;;;;;;;;;;5031953;28;20041;-70
2023/03/04 07:14:42;;;;;;;3.23;2.80;;;;;;;;;;5018989;28;20299;-70
2023/03/04 07:17:07;;;;;;;2.70;2.40;;;;;;;;;;5014337;28;20279;-68
2023/03/04 07:19:32;;;;;;;2.83;2.40;;;;;;;;;;4997905;28;20733;-70
2023/03/04 07:21:58;;;;;;;3.90;2.70;;;;;;;;;;5020258;28;20287;-69
2023/03/04 07:24:23;;;;;;;3.43;2.80;;;;;;;;;;5032935;28;20339;-70
2023/03/04 07:26:48;;;;;;;3.63;2.97;;;;;;;;;;5001019;28;20310;-66
2023/03/04 07:29:13;;;;;;;3.03;2.50;;;;;;;;;;5001877;28;20854;-70
2023/03/04 07:31:39;;;;;;;3.70;2.60;;;;;;;;;;4999417;28;21477;-69
2023/03/04 07:34:05;;;;;;;4.45;2.75;;;;;;;;;;5003480;28;20109;-67
2023/03/04 07:36:30;;;;;;;3.47;2.63;;;;;;;;;;5029119;28;20052;-69
2023/03/04 07:38:56;;;;;;;4.22;2.70;;;;;;;;;;5014228;28;20053;-72
2023/03/04 07:41:22;;;;;;;3.60;2.70;;;;;;;;;;5018870;28;20047;-65
2023/03/04 07:43:47;;;;;;;3.58;2.67;;;;;;;;;;5018018;28;20037;-70
2023/03/04 07:46:12;;;;;;;3.35;2.70;;;;;;;;;;5002943;28;20081;-70
2023/03/04 07:48:38;;;;;;;4.03;2.80;;;;;;;;;;5006533;28;20064;-65
2023/03/04 07:51:29;;;;;;;3.97;2.78;;;;;;;;;;5013100;28;20460;-69
2023/03/04 07:53:55;;;;;;;3.55;2.70;;;;;;;;;;5040099;28;20136;-67
2023/03/04 07:56:22;;;;;;;2.90;2.40;;;;;;;;;;5031714;28;20035;-70
2023/03/04 07:58:47;;;;;;;4.05;2.85;;;;;;;;;;5042604;28;20040;-65
2023/03/04 08:01:13;;;;;;;4.18;2.88;;;;;;;;;;5007539;28;20029;-71
2023/03/04 08:03:39;;;;;;;3.60;2.83;;;;;;;;;;5041395;28;20112;-70
2023/03/04 08:06:05;;;;;;;3.92;2.67;;;;;;;;;;5021759;28;20153;-70
2023/03/04 08:08:30;;;;;;;3.50;2.80;;;;;;;;;;5020480;28;20052;-68
2023/03/04 08:10:55;;;;;;;4.10;3.20;;;;;;;;;;5033679;28;20068;-66
2023/03/04 08:13:21;;;;;;;3.72;2.78;;;;;;;;;;5022186;28;20283;-70
2023/03/04 08:15:46;;;;;;;4.05;2.80;;;;;;;;;;5008110;28;20028;-67
2023/03/04 08:18:11;;;;;;;3.65;2.65;;;;;;;;;;5023424;28;20052;-71
2023/03/04 08:20:36;;;;;;;4.43;2.95;;;;;;;;;;5015102;28;20029;-72
2023/03/04 08:23:02;;;;;;;4.35;2.80;;;;;;;;;;5002235;28;20105;-71
2023/03/04 08:25:27;;;;;;;4.95;2.95;;;;;;;;;;5016065;28;20040;-68
2023/03/04 08:27:52;;;;;;;4.00;2.70;;;;;;;;;;5001896;28;21072;-72
2023/03/04 08:30:18;;;;;;;4.00;2.58;;;;;;;;;;5004431;28;20037;-71
2023/03/04 08:32:43;;;;;;;3.65;2.90;;;;;;;;;;5022301;28;20040;-73
2023/03/04 08:35:08;;;;;;;4.00;2.80;;;;;;;;;;5020816;28;20084;-73
2023/03/04 08:37:33;;;;;;;3.50;2.60;;;;;;;;;;5005441;28;20059;-70
2023/03/04 08:39:59;;;;;;;4.13;2.70;;;;;;;;;;5022557;28;20292;-68
2023/03/04 08:42:24;;;;;;;3.72;2.70;;;;;;;;;;5025039;28;20048;-65
2023/03/04 08:44:49;;;;;;;3.75;2.65;;;;;;;;;;5018802;28;20051;-71
2023/03/04 08:47:15;;;;;;;4.33;2.77;;;;;;;;;;5013592;28;20056;-68
2023/03/04 08:49:40;;;;;;;4.32;2.95;;;;;;;;;;5035101;28;20367;-64
2023/03/04 08:52:05;;;;;;;12.73;3.43;;;;;;;;;;5016634;28;20103;-65
2023/03/04 08:54:30;;;;;;;5.13;2.78;;;;;;;;;;5002706;28;20783;-70
2023/03/04 08:56:56;;;;;;;4.97;3.10;;;;;;;;;;5002655;28;20033;-70
2023/03/04 08:59:21;;;;;;;5.07;3.15;;;;;;;;;;5020824;28;20386;-74
2023/03/04 09:01:46;;;;;;;4.27;2.83;;;;;;;;;;5002154;28;20052;-68
2023/03/04 09:04:11;;;;;;;6.88;3.13;;;;;;;;;;5035901;28;20313;-74
2023/03/04 09:06:37;;;;;;;4.28;3.15;;;;;;;;;;5002451;28;20033;-69
2023/03/04 09:09:02;;;;;;;4.23;3.00;;;;;;;;;;5036019;28;20178;-72
2023/03/04 09:11:27;;;;;;;4.50;3.05;;;;;;;;;;5024405;28;20284;-68
2023/03/04 09:13:53;;;;;;;5.10;3.22;;;;;;;;;;5009274;28;20044;-77
2023/03/04 09:16:18;;;;;;;4.70;3.47;;;;;;;;;;5010011;28;20053;-79
2023/03/04 09:18:43;;;;;;;4.07;2.92;;;;;;;;;;5038177;28;20121;-75
2023/03/04 09:21:08;;;;;;;5.43;3.30;;;;;;;;;;5022825;28;20037;-76
2023/03/04 09:23:34;;;;;;;5.93;3.08;;;;;;;;;;5020172;28;20043;-69
2023/03/04 09:25:59;;;;;;;5.93;3.13;;;;;;;;;;5004685;28;20052;-67
2023/03/04 09:28:24;;;;;;;4.23;3.10;;;;;;;;;;5038728;28;20060;-68
2023/03/04 09:30:50;;;;;;;4.77;3.00;;;;;;;;;;5008804;28;20292;-76
2023/03/04 09:33:15;;;;;;;5.17;3.17;;;;;;;;;;5037011;28;20048;-67
2023/03/04 09:35:40;;;;;;;4.20;2.70;;;;;;;;;;5019084;28;20402;-70
2023/03/04 09:38:06;;;;;;;3.97;2.90;;;;;;;;;;5000011;28;21459;-72
2023/03/04 09:40:32;;;;;;;4.20;2.90;;;;;;;;;;5000033;28;20048;-74
2023/03/04 09:43:04;;;;;;;3.92;3.03;;;;;;;;;;5034371;28;20055;-76
2023/03/04 09:45:40;;;;;;;6.03;3.40;;;;;;;;;;5022569;28;20055;-78
2023/03/04 09:48:05;;;;;;;4.47;3.00;;;;;;;;;;5018242;28;20030;-66
2023/03/04 09:50:31;;;;;;;4.43;3.38;;;;;;;;;;5022903;28;20033;-68
2023/03/04 09:53:14;;;;;;;4.35;3.25;;;;;;;;;;5035326;28;20125;-72
2023/03/04 09:55:45;;;;;;;4.53;3.00;;;;;;;;;;5035447;28;20049;-68
2023/03/04 09:58:20;;;;;;;4.88;3.00;;;;;;;;;;5016703;28;20075;-72
2023/03/04 10:00:46;;;;;;;5.72;3.30;;;;;;;;;;5037490;28;20041;-69
2023/03/04 10:03:16;;;;;;;3.88;2.90;;;;;;;;;;5020294;28;20037;-74
2023/03/04 10:05:44;;;;;;;4.25;3.00;;;;;;;;;;5035555;28;20151;-70
2023/03/04 10:08:09;;;;;;;3.90;2.90;;;;;;;;;;5034439;28;20041;-62
2023/03/04 10:10:35;;;;;;;3.90;2.97;;;;;;;;;;5031329;28;20099;-65
2023/03/04 10:13:00;;;;;;;3.75;2.88;;;;;;;;;;5016627;28;20424;-62
2023/03/04 10:15:28;;;;;;;7.40;5.35;;;;;;;;;;5021398;28;20040;-69
2023/03/04 10:17:55;;;;;;;5.05;3.20;;;;;;;;;;5034663;28;20049;-65
2023/03/04 10:20:22;;;;;;;5.03;2.97;;;;;;;;;;5016629;28;20089;-70
2023/03/04 10:22:47;;;;;;;4.43;3.30;;;;;;;;;;5033130;28;20533;-68
2023/03/04 10:25:20;;;;;;;4.63;3.42;;;;;;;;;;5032494;28;20040;-69
2023/03/04 10:28:04;;;;;;;5.28;3.33;;;;;;;;;;5016593;28;20060;-66
2023/03/04 10:30:48;;;;;;;3.78;2.97;;;;;;;;;;5021089;28;20115;-73
2023/03/04 10:33:14;;;;;;;4.05;3.10;;;;;;;;;;5035604;28;20067;-72
2023/03/04 10:35:39;;;;;;;3.78;2.95;;;;;;;;;;5019466;28;20054;-68
2023/03/04 10:38:05;;;;;;;3.63;3.03;;;;;;;;;;5037272;28;20048;-71
2023/03/04 10:40:30;;;;;;;4.03;2.88;;;;;;;;;;5022721;28;20041;-69
2023/03/04 10:42:57;;;;;;;5.30;3.55;;;;;;;;;;5011021;28;20544;-67
2023/03/04 10:45:24;;;;;;;4.57;3.13;;;;;;;;;;5011752;28;20082;-69
2023/03/04 10:47:56;;;;;;;3.92;3.20;;;;;;;;;;5007852;28;20029;-70
2023/03/04 10:50:22;;;;;;;4.35;3.00;;;;;;;;;;5004596;28;20029;-72
2023/03/04 10:52:50;;;;;;;4.18;3.03;;;;;;;;;;5020863;28;20979;-73
2023/03/04 10:55:16;;;;;;;4.57;3.40;;;;;;;;;;5005820;28;20373;-72
2023/03/04 10:57:42;;;;;;;5.10;3.40;;;;;;;;;;5004239;28;20033;-70
2023/03/04 11:00:16;;;;;;;3.60;2.80;;;;;;;;;;5020670;28;20472;-69
2023/03/04 11:02:42;;;;;;;4.10;2.65;;;;;;;;;;5035996;28;20044;-75
2023/03/04 11:05:13;;;;;;;4.03;3.28;;;;;;;;;;5014539;28;20033;-70
2023/03/04 11:07:39;;;;;;;4.10;3.25;;;;;;;;;;5033871;28;20113;-69
2023/03/04 11:10:28;;;;;;;3.90;3.17;;;;;;;;;;5016245;28;20045;-74
2023/03/04 11:13:00;;;;;;;18.17;4.30;;;;;;;;;;5007318;28;20414;-70
2023/03/04 11:15:26;;;;;;;16.45;4.20;;;;;;;;;;5002911;28;20497;-70
2023/03/04 11:17:56;;;;;;;7.03;3.55;;;;;;;;;;5035343;28;20039;-69
2023/03/04 11:20:24;;;;;;;6.82;3.30;;;;;;;;;;5019494;28;20033;-73
2023/03/04 11:22:50;;;;;;;8.07;3.92;;;;;;;;;;5039530;28;20048;-71
2023/03/04 11:25:31;;;;;;;8.00;3.40;;;;;;;;;;5021565;28;20033;-72
2023/03/04 11:27:57;;;;;;;6.78;3.20;;;;;;;;;;5039125;28;20111;-74
2023/03/04 11:30:38;;;;;;;5.45;3.42;;;;;;;;;;5020852;28;20029;-68
2023/03/04 11:33:23;;;;;;;8.10;4.45;;;;;;;;;;5051609;28;20029;-72
2023/03/04 11:35:57;;;;;;;7.63;4.70;;;;;;;;;;5045545;28;20101;-70
2023/03/04 11:38:23;;;;;;;6.68;4.57;;;;;;;;;;5057372;28;20131;-72
2023/03/04 11:40:51;;;;;;;7.28;4.55;;;;;;;;;;5002419;28;20061;-74
2023/03/04 11:43:18;;;;;;;7.03;4.13;;;;;;;;;;5034899;28;20448;-73
2023/03/04 11:45:58;;;;;;;7.85;3.95;;;;;;;;;;5003967;28;20186;-66
2023/03/04 11:48:29;;;;;;;7.43;4.05;;;;;;;;;;5019724;28;20115;-66
2023/03/04 11:50:58;;;;;;;6.07;4.20;;;;;;;;;;5037334;28;20062;-68
2023/03/04 11:54:01;;;;;;;7.85;4.90;;;;;;;;;;5038460;28;20040;-74
2023/03/04 11:56:36;;;;;;;6.28;3.95;;;;;;;;;;4942613;28;20043;-72
2023/03/04 11:59:21;;;;;;;7.28;3.90;;;;;;;;;;4923403;28;20184;-75
2023/03/04 12:01:55;;;;;;;7.00;4.15;;;;;;;;;;5003867;28;20456;-71
2023/03/04 12:04:20;;;;;;;6.72;4.18;;;;;;;;;;5038248;28;20029;-70
2023/03/04 12:07:05;;;;;;;5.73;3.90;;;;;;;;;;5037270;28;20052;-67
2023/03/04 12:09:36;;;;;;;7.00;3.60;;;;;;;;;;5020925;28;20076;-69
2023/03/04 12:12:06;;;;;;;6.38;3.67;;;;;;;;;;5019899;28;20051;-77
2023/03/04 12:14:42;;;;;;;5.32;3.67;;;;;;;;;;5010746;28;20044;-76
2023/03/04 12:17:11;;;;;;;5.72;3.80;;;;;;;;;;5022151;28;20072;-77
2023/03/04 12:19:42;;;;;;;5.60;3.88;;;;;;;;;;5021635;28;20116;-76
2023/03/04 12:22:12;;;;;;;6.85;3.30;;;;;;;;;;5020761;28;20041;-71
2023/03/04 12:24:56;;;;;;;7.13;4.15;;;;;;;;;;5008351;28;20033;-69
2023/03/04 12:27:40;;;;;;;5.85;3.70;;;;;;;;;;5040427;28;20041;-69
2023/03/04 12:30:24;;;;;;;7.38;3.80;;;;;;;;;;5041603;28;20049;-72
2023/03/04 12:32:55;;;;;;;7.25;3.70;;;;;;;;;;5018044;28;20142;-69
2023/03/04 12:35:26;;;;;;;5.63;3.63;;;;;;;;;;5022703;28;20052;-65
2023/03/04 12:38:07;;;;;;;5.68;3.53;;;;;;;;;;5045670;28;20152;-71
2023/03/04 12:40:32;;;;;;;5.65;3.90;;;;;;;;;;5021572;28;20505;-65
2023/03/04 12:43:15;;;;;;;5.80;3.92;;;;;;;;;;5026984;28;20032;-71
2023/03/04 12:45:58;;;;;;;5.28;3.53;;;;;;;;;;5042770;28;20024;-64
2023/03/04 12:48:24;;;;;;;5.25;3.47;;;;;;;;;;5014625;28;20049;-67
2023/03/04 12:50:52;;;;;;;4.67;3.70;;;;;;;;;;5017254;28;20210;-71
2023/03/04 12:53:29;;;;;;;5.18;3.30;;;;;;;;;;5036220;28;20314;-67
2023/03/04 12:55:55;;;;;;;4.80;3.72;;;;;;;;;;5037048;28;20045;-71
2023/03/04 12:58:21;;;;;;;4.80;3.30;;;;;;;;;;5019525;28;20036;-68
2023/03/04 13:00:55;;;;;;;4.90;3.63;;;;;;;;;;5000856;28;20116;-70
2023/03/04 13:03:30;;;;;;;4.38;3.17;;;;;;;;;;5036224;28;20102;-70
2023/03/04 13:06:01;;;;;;;4.53;3.45;;;;;;;;;;5014828;28;20052;-73
2023/03/04 13:08:26;;;;;;;5.50;3.60;;;;;;;;;;5035686;28;20057;-78
2023/03/04 13:10:51;;;;;;;4.90;3.27;;;;;;;;;;5032667;28;20045;-74
2023/03/04 13:13:35;;;;;;;5.38;3.22;;;;;;;;;;5009769;28;20056;-75
2023/03/04 13:16:02;;;;;;;5.90;3.28;;;;;;;;;;5031297;28;20052;-67
2023/03/04 13:18:32;;;;;;;5.03;3.33;;;;;;;;;;4999263;28;20029;-74
2023/03/04 13:20:57;;;;;;;;;;;;;;;;;;5032511;28;20051;-71
2023/03/04 13:23:27;;;;;;;4.22;3.13;;;;;;;;;;5025177;28;19913;-75
2023/03/04 13:25:54;;;;;;;5.07;3.70;;;;;;;;;;5012930;28;20026;-66
2023/03/04 13:28:21;;;;;;;5.40;3.70;;;;;;;;;;5037896;28;20190;-70
2023/03/04 13:30:55;;;;;;;5.15;3.53;;;;;;;;;;5023435;28;20024;-68
2023/03/04 13:33:20;;;;;;;5.20;3.70;;;;;;;;;;5039130;28;20041;-70
2023/03/04 13:35:49;;;;;;;4.43;3.63;;;;;;;;;;5024397;28;20051;-68
2023/03/04 13:38:17;;;;;;;6.00;3.28;;;;;;;;;;5021382;28;20036;-74
2023/03/04 13:40:42;;;;;;;5.20;3.30;;;;;;;;;;5021273;28;20033;-75
2023/03/04 13:43:22;;;;;;;4.75;3.53;;;;;;;;;;5022588;28;20202;-73
2023/03/04 13:45:48;;;;;;;4.50;3.38;;;;;;;;;;5039767;28;20108;-75
2023/03/04 13:48:27;;;;;;;4.57;3.53;;;;;;;;;;5009523;28;20113;-71
2023/03/04 13:50:53;;;;;;;4.68;3.35;;;;;;;;;;5021818;28;20049;-74
2023/03/04 13:53:37;;;;;;;5.93;3.58;;;;;;;;;;5023600;28;20452;-76
2023/03/04 13:56:05;;;;;;;4.60;3.60;;;;;;;;;;5036366;28;20134;-74
2023/03/04 13:58:31;;;;;;;4.95;3.50;;;;;;;;;;5023472;28;20064;-75
2023/03/04 14:00:56;;;;;;;5.28;3.70;;;;;;;;;;5026590;28;20126;-73
2023/03/04 14:03:28;;;;;;;5.20;3.80;;;;;;;;;;5019014;28;20033;-70
2023/03/04 14:06:12;;;;;;;4.72;3.42;;;;;;;;;;5020145;28;20295;-70
2023/03/04 14:08:37;;;;;;;5.32;3.70;;;;;;;;;;5038617;28;20055;-76
2023/03/04 14:11:03;;;;;;;5.70;3.45;;;;;;;;;;5008021;28;20025;-67
2023/03/04 14:13:28;;;;;;;5.03;3.40;;;;;;;;;;5018401;28;20037;-73
2023/03/04 14:15:55;;;;;;;4.43;3.70;;;;;;;;;;5007981;28;20049;-76
2023/03/04 14:18:20;;;;;;;4.45;3.10;;;;;;;;;;5000275;28;20045;-67
2023/03/04 14:20:48;;;;;;;5.47;3.70;;;;;;;;;;5017214;28;20028;-70
2023/03/04 14:23:23;;;;;;;6.25;3.25;;;;;;;;;;5036065;28;20032;-74
2023/03/04 14:25:48;;;;;;;4.70;3.25;;;;;;;;;;5035508;28;20045;-68
2023/03/04 14:28:15;;;;;;;4.75;3.22;;;;;;;;;;5007557;28;20079;-70
2023/03/04 14:30:40;;;;;;;4.88;3.50;;;;;;;;;;5024085;28;20094;-69
2023/03/04 14:33:06;;;;;;;5.75;3.28;;;;;;;;;;5006875;28;20512;-75
2023/03/04 14:35:32;;;;;;;4.38;3.45;;;;;;;;;;5035905;28;20049;-67
2023/03/04 14:38:01;;;;;;;4.87;3.50;;;;;;;;;;5006772;28;20051;-71
2023/03/04 14:40:27;;;;;;;5.67;3.60;;;;;;;;;;5019582;28;20037;-75
2023/03/04 14:42:54;;;;;;;5.05;3.53;;;;;;;;;;5008608;28;20279;-73